Time;durP1;ratioP1;P1;durP2;ratioP2;P2;SDS_P1;SDS_P2;PMS_P1;PMS_P2;Temp;Humidity;BMP_temperature;BMP_pressure;BME280_temperature;BME280_humidity;BME280_pressure;Samples;Min_cycle;Max_cycle;Signal;HPM_P1;HPM_P2
2022/12/26 00:00:52;;;;;;;;;;;8.40;92.00;;;;;;5070634;28;20392;-87
2022/12/26 00:03:17;;;;;;;;;;;8.40;91.90;;;;;;5059119;28;19952;-87
2022/12/26 00:05:43;;;;;;;;;;;8.40;91.70;;;;;;5052531;28;19950;-87
2022/12/26 00:08:08;;;;;;;;;;;8.50;91.50;;;;;;5052630;28;19944;-87
2022/12/26 00:10:34;;;;;;;;;;;8.50;91.40;;;;;;5052609;28;19960;-87
2022/12/26 00:13:00;;;;;;;;;;;8.60;91.30;;;;;;5052599;28;20567;-87
2022/12/26 00:15:25;;;;;;;;;;;8.40;91.30;;;;;;5054972;28;19978;-86
2022/12/26 00:17:51;;;;;;;;;;;8.40;91.40;;;;;;5056373;28;20012;-87
2022/12/26 00:20:16;;;;;;;;;;;8.40;91.50;;;;;;5056324;28;20355;-86
2022/12/26 00:22:42;;;;;;;;;;;8.50;91.40;;;;;;5056257;28;19946;-87
2022/12/26 00:25:07;;;;;;;;;;;8.50;91.10;;;;;;5056185;28;19941;-87
2022/12/26 00:27:33;;;;;;;;;;;8.40;91.30;;;;;;5056162;28;19940;-87
2022/12/26 00:29:58;;;;;;;;;;;8.40;91.50;;;;;;5071401;28;20000;-87
2022/12/26 00:32:24;;;;;;;;;;;8.40;91.60;;;;;;5076066;28;19940;-87
2022/12/26 00:34:49;;;;;;;;;;;8.40;91.80;;;;;;5075974;28;19938;-87
2022/12/26 00:37:15;;;;;;;;;;;8.40;91.70;;;;;;5075914;28;19963;-87
2022/12/26 00:39:40;;;;;;;;;;;8.40;91.60;;;;;;5075959;28;19955;-87
2022/12/26 00:42:06;;;;;;;;;;;8.40;91.60;;;;;;5075884;28;19961;-87
2022/12/26 00:44:31;;;;;;;;;;;8.40;91.60;;;;;;5073677;28;19948;-87
2022/12/26 00:46:56;;;;;;;;;;;8.40;91.80;;;;;;5075556;28;19950;-87
2022/12/26 00:49:22;;;;;;;;;;;8.40;91.60;;;;;;5075804;28;19944;-87
2022/12/26 00:51:48;;;;;;;;;;;8.40;91.70;;;;;;5075637;28;19986;-87
2022/12/26 00:54:13;;;;;;;;;;;8.40;91.70;;;;;;5075555;28;19936;-87
2022/12/26 00:56:39;;;;;;;;;;;8.30;92.00;;;;;;5075555;28;20399;-87
2022/12/26 00:59:04;;;;;;;;;;;8.40;91.90;;;;;;5075538;28;20035;-87
2022/12/26 01:01:31;;;;;;;;;;;8.40;91.80;;;;;;5075553;28;20031;-87
2022/12/26 01:03:57;;;;;;;;;;;8.30;91.90;;;;;;5075487;28;20353;-87
2022/12/26 01:06:22;;;;;;;;;;;8.40;92.00;;;;;;5075452;28;19941;-87
2022/12/26 01:08:48;;;;;;;;;;;8.40;92.10;;;;;;5075444;28;20040;-87
2022/12/26 01:11:14;;;;;;;;;;;8.40;92.20;;;;;;5075606;28;19995;-87
2022/12/26 01:13:41;;;;;;;;;;;8.50;92.20;;;;;;5067596;28;19999;-87
2022/12/26 01:16:06;;;;;;;;;;;8.60;92.10;;;;;;5054956;28;19977;-87
2022/12/26 01:18:32;;;;;;;;;;;8.60;92.00;;;;;;5055442;28;19940;-87
2022/12/26 01:20:59;;;;;;;;;;;8.70;91.40;;;;;;5055193;28;19976;-87
2022/12/26 01:23:25;;;;;;;;;;;8.70;90.90;;;;;;5055312;28;19952;-87
2022/12/26 01:25:51;;;;;;;;;;;8.60;90.40;;;;;;5054655;28;20034;-87
2022/12/26 01:28:16;;;;;;;;;;;8.50;90.50;;;;;;5055065;28;19945;-87
2022/12/26 01:30:42;;;;;;;;;;;8.40;90.90;;;;;;5054922;28;20029;-87
2022/12/26 01:33:07;;;;;;;;;;;8.40;91.10;;;;;;5054928;28;19941;-87
2022/12/26 01:35:33;;;;;;;;;;;8.50;91.20;;;;;;5054804;28;19943;-87
2022/12/26 01:37:59;;;;;;;;;;;8.80;91.10;;;;;;5054886;28;19939;-87
2022/12/26 01:40:24;;;;;;;;;;;8.90;90.90;;;;;;5054769;28;19944;-87
2022/12/26 01:42:50;;;;;;;;;;;8.90;90.90;;;;;;5054907;28;19965;-87
2022/12/26 01:45:27;;;;;;;;;;;8.80;90.50;;;;;;5074763;28;19959;-87
2022/12/26 01:47:57;;;;;;;;;;;8.90;90.70;;;;;;5074678;28;19975;-87
2022/12/26 01:50:29;;;;;;;;;;;8.90;90.60;;;;;;5074644;28;19938;-86
2022/12/26 01:52:55;;;;;;;;;;;8.90;90.10;;;;;;5074741;28;19959;-87
2022/12/26 01:55:21;;;;;;;;;;;9.00;89.90;;;;;;5074414;28;20041;-87
2022/12/26 01:57:49;;;;;;;;;;;9.00;89.80;;;;;;5074443;28;20460;-87
2022/12/26 02:00:14;;;;;;;;;;;8.90;90.40;;;;;;5074412;28;19941;-87
2022/12/26 02:05:35;;;;;;;;;;;8.90;90.90;;;;;;5062017;28;20268;-87
2022/12/26 02:08:03;;;;;;;;;;;8.90;90.80;;;;;;5054173;28;19950;-87
2022/12/26 02:10:32;;;;;;;;;;;8.80;90.90;;;;;;5054229;28;20308;-87
2022/12/26 02:12:57;;;;;;;;;;;8.90;91.10;;;;;;5054195;28;19943;-87
2022/12/26 02:15:23;;;;;;;;;;;9.00;90.60;;;;;;5053912;28;20350;-87
2022/12/26 02:17:48;;;;;;;;;;;9.10;90.50;;;;;;5054075;28;19986;-87
2022/12/26 02:20:27;;;;;;;;;;;9.20;89.60;;;;;;5054040;28;19938;-86
2022/12/26 02:22:53;;;;;;;;;;;9.10;89.50;;;;;;5034310;28;20035;-86
2022/12/26 02:25:24;;;;;;;;;;;9.20;89.60;;;;;;5033989;28;20427;-86
2022/12/26 02:27:50;;;;;;;;;;;9.30;88.50;;;;;;5034255;28;20076;-86
2022/12/26 02:30:18;;;;;;;;;;;9.30;88.20;;;;;;5033928;28;19979;-86
2022/12/26 02:33:04;;;;;;;;;;;9.10;88.50;;;;;;5033862;28;19943;-87
2022/12/26 02:35:33;;;;;;;;;;;9.10;88.70;;;;;;5032928;28;19942;-87
2022/12/26 02:38:04;;;;;;;;;;;8.90;89.30;;;;;;5033301;28;20363;-86
2022/12/26 02:40:41;;;;;;;;;;;8.70;89.50;;;;;;5033843;28;19998;-86
2022/12/26 02:43:25;;;;;;;;;;;8.60;90.10;;;;;;5033995;28;19944;-86
2022/12/26 02:49:13;;;;;;;;;;;8.50;91.00;;;;;;5033734;28;20029;-86
2022/12/26 03:14:16;;;;;;;;;;;8.60;89.90;;;;;;5079882;23;20030;-86
2022/12/26 03:19:31;;;;;;;;;;;8.70;90.40;;;;;;5073449;28;19947;-86
2022/12/26 03:21:58;;;;;;;;;;;8.70;90.50;;;;;;5072435;28;19998;-87
2022/12/26 03:24:24;;;;;;;;;;;8.80;90.50;;;;;;5073108;28;19941;-87
2022/12/26 03:26:51;;;;;;;;;;;9.00;90.20;;;;;;5073073;28;19973;-86
2022/12/26 03:32:04;;;;;;;;;;;8.90;89.80;;;;;;5073006;28;20039;-87
2022/12/26 03:34:30;;;;;;;;;;;8.80;89.80;;;;;;5073013;28;19951;-86
2022/12/26 03:37:05;;;;;;;;;;;8.90;89.60;;;;;;5072888;28;19962;-86
2022/12/26 04:20:07;;;;;;;;;;;8.20;90.80;;;;;;5047817;28;19955;-86
2022/12/26 04:45:17;;;;;;;;;;;8.40;91.60;;;;;;5056160;28;20008;-86
2022/12/26 04:50:10;;;;;;;;;;;8.50;91.30;;;;;;5055800;28;20006;-86
2022/12/26 04:50:28;;;;;;;;;;;8.80;90.80;;;;;;5037010;28;20036;-87
2022/12/26 04:52:57;;;;;;;;;;;8.90;89.50;;;;;;5035751;28;20058;-86
2022/12/26 04:55:24;;;;;;;;;;;8.90;88.70;;;;;;5035629;28;19943;-87
2022/12/26 04:57:49;;;;;;;;;;;8.70;88.80;;;;;;5035670;28;19963;-86
2022/12/26 05:00:15;;;;;;;;;;;8.50;89.10;;;;;;5035083;28;19976;-86
2022/12/26 05:11:13;;;;;;;;;;;8.00;90.30;;;;;;5035495;28;19992;-86
2022/12/26 05:13:39;;;;;;;;;;;7.90;91.30;;;;;;5035397;28;19941;-86
2022/12/26 05:29:46;;;;;;;;;;;8.50;89.50;;;;;;5035482;28;20456;-86
2022/12/26 05:32:11;;;;;;;;;;;8.40;89.50;;;;;;5035023;28;20036;-86
2022/12/26 05:34:37;;;;;;;;;;;8.30;89.90;;;;;;5035026;28;19944;-87
2022/12/26 05:37:02;;;;;;;;;;;8.30;90.10;;;;;;5034906;28;19956;-86
2022/12/26 05:39:28;;;;;;;;;;;8.20;90.20;;;;;;5035191;28;19946;-86
2022/12/26 05:41:54;;;;;;;;;;;8.20;90.20;;;;;;5034877;28;20384;-86
2022/12/26 05:44:19;;;;;;;;;;;8.10;90.20;;;;;;5034900;28;19960;-86
2022/12/26 05:46:45;;;;;;;;;;;8.10;90.30;;;;;;5034793;28;19945;-86
2022/12/26 05:49:11;;;;;;;;;;;8.10;90.10;;;;;;5044439;28;19946;-86
2022/12/26 05:51:36;;;;;;;;;;;8.10;90.20;;;;;;5054593;28;19970;-86
2022/12/26 05:54:02;;;;;;;;;;;8.10;90.20;;;;;;5054437;28;20006;-86
2022/12/26 05:56:28;;;;;;;;;;;8.10;90.00;;;;;;5054525;28;19955;-86
2022/12/26 05:58:58;;;;;;;;;;;8.10;89.80;;;;;;5054764;28;19942;-86
2022/12/26 06:01:25;;;;;;;;;;;8.00;89.90;;;;;;5054439;28;20277;-86
2022/12/26 06:03:52;;;;;;;;;;;8.00;90.20;;;;;;5054422;28;19964;-86
2022/12/26 06:06:18;;;;;;;;;;;7.90;90.50;;;;;;5054377;28;19948;-86
2022/12/26 06:08:46;;;;;;;;;;;7.80;90.60;;;;;;5054306;28;19938;-87
2022/12/26 06:11:12;;;;;;;;;;;7.90;90.80;;;;;;5054244;28;19944;-86
2022/12/26 06:13:37;;;;;;;;;;;7.90;90.80;;;;;;5054236;28;19943;-86
2022/12/26 06:16:04;;;;;;;;;;;7.90;90.80;;;;;;5053966;28;20369;-86
2022/12/26 06:18:30;;;;;;;;;;;7.90;90.70;;;;;;5049900;28;19973;-86
2022/12/26 06:20:55;;;;;;;;;;;7.90;90.60;;;;;;5034115;28;19984;-86
2022/12/26 06:23:21;;;;;;;;;;;7.90;90.60;;;;;;5034092;28;19941;-86
2022/12/26 06:25:55;;;;;;;;;;;7.90;90.70;;;;;;5034041;28;20006;-86
2022/12/26 06:28:21;;;;;;;;;;;7.90;90.60;;;;;;5034033;28;20028;-86
2022/12/26 06:30:47;;;;;;;;;;;8.00;90.10;;;;;;5033921;28;19986;-87
2022/12/26 06:33:12;;;;;;;;;;;7.90;89.80;;;;;;5033943;28;19988;-86
2022/12/26 06:35:38;;;;;;;;;;;7.80;90.00;;;;;;5033841;28;19939;-86
2022/12/26 06:38:03;;;;;;;;;;;7.70;90.60;;;;;;5033806;28;19939;-87
2022/12/26 06:40:29;;;;;;;;;;;7.70;90.60;;;;;;5033838;28;19949;-86
2022/12/26 06:42:54;;;;;;;;;;;7.90;90.90;;;;;;5033769;28;20505;-87
2022/12/26 06:45:20;;;;;;;;;;;8.10;90.30;;;;;;5033727;28;20435;-86
2022/12/26 06:47:46;;;;;;;;;;;8.20;89.30;;;;;;5033582;28;19938;-86
2022/12/26 06:50:11;;;;;;;;;;;8.10;88.80;;;;;;5053282;28;20044;-86
2022/12/26 06:52:37;;;;;;;;;;;8.00;88.90;;;;;;5053450;28;20310;-87
2022/12/26 06:55:03;;;;;;;;;;;8.00;89.20;;;;;;5053342;28;20307;-87
2022/12/26 06:57:28;;;;;;;;;;;8.10;89.20;;;;;;5053354;28;19968;-86
2022/12/26 06:59:54;;;;;;;;;;;8.00;88.80;;;;;;5053656;28;20383;-86
2022/12/26 07:02:19;;;;;;;;;;;7.90;89.50;;;;;;5053044;28;20458;-86
2022/12/26 07:04:45;;;;;;;;;;;8.00;89.30;;;;;;5053308;28;19938;-86
2022/12/26 07:07:10;;;;;;;;;;;8.00;89.20;;;;;;5053266;28;19941;-86
2022/12/26 07:09:36;;;;;;;;;;;7.90;89.50;;;;;;5053223;28;20314;-86
2022/12/26 07:12:01;;;;;;;;;;;7.90;89.80;;;;;;5053490;28;19950;-86
2022/12/26 07:14:27;;;;;;;;;;;7.90;89.90;;;;;;5053000;28;20315;-87
2022/12/26 07:16:52;;;;;;;;;;;7.90;90.20;;;;;;5053028;28;19966;-87
2022/12/26 07:19:18;;;;;;;;;;;8.10;90.20;;;;;;5040235;28;20387;-87
2022/12/26 07:21:43;;;;;;;;;;;8.10;89.70;;;;;;5033196;28;19943;-86
2022/12/26 07:24:16;;;;;;;;;;;8.10;89.70;;;;;;5032984;28;19944;-86
2022/12/26 07:26:42;;;;;;;;;;;8.10;89.10;;;;;;5033144;28;19980;-86
2022/12/26 07:29:08;;;;;;;;;;;8.20;89.20;;;;;;5033436;28;19946;-86
2022/12/26 07:31:33;;;;;;;;;;;8.20;89.10;;;;;;5033132;28;19960;-86
2022/12/26 07:33:59;;;;;;;;;;;8.20;89.10;;;;;;5033024;28;20424;-86
2022/12/26 07:36:25;;;;;;;;;;;8.10;89.30;;;;;;5032935;28;19981;-86
2022/12/26 07:38:51;;;;;;;;;;;8.30;89.40;;;;;;5033019;28;19964;-86
2022/12/26 07:44:01;;;;;;;;;;;8.50;88.90;;;;;;5033277;28;20035;-86
2022/12/26 07:46:26;;;;;;;;;;;8.50;88.70;;;;;;5032936;28;20034;-86
2022/12/26 07:48:52;;;;;;;;;;;8.70;88.00;;;;;;5044086;28;19950;-86
2022/12/26 07:51:17;;;;;;;;;;;8.80;86.90;;;;;;5052834;28;19934;-87
2022/12/26 07:53:43;;;;;;;;;;;8.70;87.00;;;;;;5051458;28;20094;-86
2022/12/26 07:56:08;;;;;;;;;;;8.60;87.30;;;;;;5052683;28;20487;-86
2022/12/26 07:58:34;;;;;;;;;;;8.60;87.40;;;;;;5037619;28;19950;-87
2022/12/26 08:01:02;;;;;;;;;;;8.50;88.10;;;;;;5032749;28;19950;-87
2022/12/26 08:03:28;;;;;;;;;;;8.60;88.70;;;;;;5032800;28;19937;-86
2022/12/26 08:05:54;;;;;;;;;;;8.50;88.80;;;;;;5032755;28;19995;-86
2022/12/26 08:08:19;;;;;;;;;;;8.40;89.00;;;;;;5032818;28;19937;-86
2022/12/26 08:10:45;;;;;;;;;;;8.60;89.30;;;;;;5032762;28;20354;-86
2022/12/26 08:13:10;;;;;;;;;;;8.90;88.60;;;;;;5032750;28;19936;-86
2022/12/26 08:15:39;;;;;;;;;;;8.90;88.00;;;;;;5034223;28;20360;-87
2022/12/26 08:18:05;;;;;;;;;;;8.90;87.40;;;;;;5051928;28;19994;-86
2022/12/26 08:20:30;;;;;;;;;;;8.80;87.50;;;;;;5052557;28;20028;-87
2022/12/26 08:22:56;;;;;;;;;;;8.90;87.60;;;;;;5052419;28;19945;-86
2022/12/26 08:25:21;;;;;;;;;;;8.80;87.60;;;;;;5052491;28;19936;-87
2022/12/26 08:27:47;;;;;;;;;;;8.90;87.70;;;;;;5052490;28;19942;-86
2022/12/26 08:30:12;;;;;;;;;;;9.00;87.70;;;;;;5052463;28;19945;-86
2022/12/26 08:32:38;;;;;;;;;;;8.90;87.50;;;;;;5052371;28;19942;-86
2022/12/26 08:35:03;;;;;;;;;;;9.00;87.60;;;;;;5052492;28;20033;-86
2022/12/26 08:37:29;;;;;;;;;;;9.20;87.50;;;;;;5055921;28;20045;-86
2022/12/26 08:39:54;;;;;;;;;;;9.40;87.10;;;;;;5055822;28;19993;-86
2022/12/26 08:42:20;;;;;;;;;;;9.50;86.20;;;;;;5055885;28;19940;-86
2022/12/26 08:44:46;;;;;;;;;;;9.70;85.00;;;;;;5037938;28;20029;-86
2022/12/26 08:47:12;;;;;;;;;;;9.70;84.00;;;;;;5035921;28;20028;-86
2022/12/26 08:49:38;;;;;;;;;;;9.60;84.40;;;;;;5036137;28;19946;-86
2022/12/26 08:52:03;;;;;;;;;;;9.50;84.60;;;;;;5035725;28;19953;-86
2022/12/26 08:54:29;;;;;;;;;;;9.40;84.60;;;;;;5049631;28;19996;-86
2022/12/26 08:56:54;;;;;;;;;;;9.40;84.40;;;;;;5055167;28;19967;-86
2022/12/26 08:59:20;;;;;;;;;;;9.40;84.00;;;;;;5055573;28;19940;-86
2022/12/26 09:01:46;;;;;;;;;;;9.40;83.60;;;;;;5055330;28;19941;-86
2022/12/26 09:04:12;;;;;;;;;;;9.40;83.00;;;;;;5043058;28;20317;-86
2022/12/26 09:06:38;;;;;;;;;;;9.60;81.70;;;;;;5035803;28;19990;-86
2022/12/26 09:09:04;;;;;;;;;;;9.80;81.00;;;;;;5035514;28;19962;-87
2022/12/26 09:11:30;;;;;;;;;;;10.00;80.60;;;;;;5035686;28;19949;-87
2022/12/26 09:13:56;;;;;;;;;;;10.10;80.30;;;;;;5045249;28;19948;-86
2022/12/26 09:16:23;;;;;;;;;;;10.10;79.60;;;;;;5055121;28;20081;-86
2022/12/26 09:18:52;;;;;;;;;;;10.00;79.70;;;;;;5055259;28;20082;-86
2022/12/26 09:21:17;;;;;;;;;;;9.90;80.40;;;;;;5054951;28;19950;-86
2022/12/26 09:23:43;;;;;;;;;;;9.80;80.70;;;;;;5046906;28;19949;-86
2022/12/26 09:26:13;;;;;;;;;;;9.70;81.10;;;;;;5034565;28;19937;-86
2022/12/26 09:28:39;;;;;;;;;;;9.70;81.10;;;;;;5034861;28;19978;-87
2022/12/26 09:31:06;;;;;;;;;;;9.70;81.60;;;;;;5035032;28;20416;-87
2022/12/26 09:33:37;;;;;;;;;;;9.90;81.10;;;;;;5040529;28;19944;-86
2022/12/26 09:36:08;;;;;;;;;;;10.20;80.50;;;;;;5054852;28;20402;-87
2022/12/26 09:38:35;;;;;;;;;;;10.30;80.30;;;;;;5054919;28;20041;-86
2022/12/26 09:41:14;;;;;;;;;;;10.40;79.20;;;;;;5055183;28;20033;-87
2022/12/26 09:43:58;;;;;;;;;;;10.50;79.60;;;;;;5047741;28;19944;-87
2022/12/26 09:46:26;;;;;;;;;;;10.70;79.10;;;;;;5034739;28;19955;-87
2022/12/26 09:48:56;;;;;;;;;;;10.50;78.60;;;;;;5034768;28;20023;-86
2022/12/26 09:51:22;;;;;;;;;;;10.30;79.60;;;;;;5034771;28;19944;-86
2022/12/26 09:53:48;;;;;;;;;;;10.20;80.50;;;;;;5041841;28;19958;-86
2022/12/26 09:56:15;;;;;;;;;;;10.10;80.60;;;;;;5054506;28;20436;-86
2022/12/26 09:58:40;;;;;;;;;;;10.20;80.80;;;;;;5054491;28;19974;-87
2022/12/26 10:01:12;;;;;;;;;;;10.20;80.90;;;;;;5054500;28;20418;-87
2022/12/26 10:03:48;;;;;;;;;;;10.40;80.90;;;;;;5046766;28;19978;-87
2022/12/26 10:06:18;;;;;;;;;;;10.60;80.70;;;;;;5034455;28;19994;-87
2022/12/26 10:08:46;;;;;;;;;;;10.90;79.50;;;;;;5034415;28;19941;-87
2022/12/26 10:11:27;;;;;;;;;;;11.10;78.70;;;;;;5034370;28;19941;-86
2022/12/26 10:13:56;;;;;;;;;;;11.00;78.40;;;;;;5042002;28;20037;-86
2022/12/26 10:16:30;;;;;;;;;;;10.70;79.10;;;;;;5053974;28;20441;-86
2022/12/26 10:19:04;;;;;;;;;;;10.70;79.30;;;;;;5054130;28;19952;-87
2022/12/26 10:21:35;;;;;;;;;;;10.70;79.80;;;;;;5054145;28;19984;-87
2022/12/26 10:24:21;;;;;;;;;;;10.60;79.90;;;;;;5045023;28;19942;-86
2022/12/26 10:26:48;;;;;;;;;;;10.50;80.00;;;;;;5033973;28;19973;-87
2022/12/26 10:29:17;;;;;;;;;;;10.60;80.40;;;;;;5034075;28;19940;-87
2022/12/26 10:31:48;;;;;;;;;;;10.80;79.60;;;;;;5033941;28;19944;-87
2022/12/26 10:34:25;;;;;;;;;;;10.90;79.30;;;;;;5043872;28;20391;-87
2022/12/26 10:36:53;;;;;;;;;;;11.20;78.50;;;;;;5053698;28;20091;-87
2022/12/26 10:39:26;;;;;;;;;;;11.30;77.50;;;;;;5053785;28;20043;-87
2022/12/26 10:41:54;;;;;;;;;;;11.20;77.80;;;;;;5053767;28;19939;-87
2022/12/26 10:44:20;;;;;;;;;;;11.20;78.20;;;;;;5042488;28;19947;-87
2022/12/26 10:47:04;;;;;;;;;;;11.20;78.30;;;;;;5033691;28;19948;-87
2022/12/26 10:49:29;;;;;;;;;;;11.10;78.30;;;;;;5033706;28;19966;-87
2022/12/26 10:51:56;;;;;;;;;;;11.10;78.60;;;;;;5033519;28;20321;-87
2022/12/26 10:54:22;;;;;;;;;;;11.10;78.90;;;;;;5044224;28;20048;-87
2022/12/26 10:56:48;;;;;;;;;;;11.10;79.20;;;;;;5053686;28;20428;-87
2022/12/26 10:59:19;;;;;;;;;;;11.10;79.60;;;;;;5052805;28;19947;-87
2022/12/26 11:01:48;;;;;;;;;;;11.30;79.80;;;;;;5052107;28;19997;-87
2022/12/26 11:04:25;;;;;;;;;;;11.60;78.40;;;;;;5043717;28;19974;-87
2022/12/26 11:06:51;;;;;;;;;;;11.90;77.20;;;;;;5033479;28;19944;-87
2022/12/26 11:09:34;;;;;;;;;;;12.10;76.50;;;;;;5033650;28;19977;-87
2022/12/26 11:12:00;;;;;;;;;;;12.00;76.20;;;;;;5033315;28;19952;-87
2022/12/26 11:14:32;;;;;;;;;;;11.60;77.40;;;;;;5053674;22;19963;-86
2022/12/26 11:16:59;;;;;;;;;;;11.50;78.10;;;;;;5053088;28;19961;-86
2022/12/26 11:19:32;;;;;;;;;;;11.40;78.50;;;;;;5053152;28;19939;-86
2022/12/26 11:22:16;;;;;;;;;;;11.30;79.10;;;;;;5053137;28;19944;-86
2022/12/26 11:24:43;;;;;;;;;;;11.20;79.60;;;;;;5052097;28;21299;-87
2022/12/26 11:27:16;;;;;;;;;;;11.10;79.80;;;;;;5052867;28;19947;-87
2022/12/26 11:29:42;;;;;;;;;;;11.10;80.00;;;;;;5053056;28;19945;-87
2022/12/26 11:32:14;;;;;;;;;;;11.30;80.10;;;;;;5052970;28;20292;-86
2022/12/26 11:34:44;;;;;;;;;;;11.50;79.40;;;;;;5052788;28;19954;-87
2022/12/26 11:37:28;;;;;;;;;;;11.60;78.70;;;;;;5052590;28;20028;-87
2022/12/26 11:39:54;;;;;;;;;;;11.40;78.90;;;;;;5052961;28;19935;-87
2022/12/26 11:42:20;;;;;;;;;;;11.60;79.20;;;;;;5052919;28;19935;-87
2022/12/26 11:44:51;;;;;;;;;;;11.60;78.70;;;;;;5052584;28;19954;-86
2022/12/26 11:47:19;;;;;;;;;;;11.40;79.00;;;;;;5052870;28;19955;-87
2022/12/26 11:49:49;;;;;;;;;;;11.30;79.40;;;;;;5052755;28;20022;-86
2022/12/26 11:52:33;;;;;;;;;;;11.30;79.80;;;;;;5034939;28;20013;-86
2022/12/26 11:54:59;;;;;;;;;;;11.10;79.70;;;;;;5052621;28;19950;-87
2022/12/26 11:57:31;;;;;;;;;;;11.10;80.10;;;;;;5052661;28;20414;-87
2022/12/26 12:00:16;;;;;;;;;;;11.10;80.50;;;;;;5052650;28;20390;-87
2022/12/26 12:02:42;;;;;;;;;;;11.10;80.80;;;;;;5052670;28;19946;-87
2022/12/26 12:05:28;;;;;;;;;;;11.20;80.80;;;;;;5052772;28;19950;-87
2022/12/26 12:08:05;;;;;;;;;;;11.30;80.70;;;;;;5052695;28;19962;-88
2022/12/26 12:10:37;;;;;;;;;;;11.60;79.60;;;;;;5055435;28;19937;-87
2022/12/26 12:13:02;;;;;;;;;;;11.80;78.70;;;;;;5056300;28;19938;-87
2022/12/26 12:15:30;;;;;;;;;;;11.70;78.50;;;;;;5056348;28;19978;-86
2022/12/26 12:18:14;;;;;;;;;;;11.60;79.10;;;;;;5056385;28;20019;-87
2022/12/26 12:20:52;;;;;;;;;;;11.60;79.80;;;;;;5056355;28;20398;-86
2022/12/26 12:23:17;;;;;;;;;;;11.50;79.30;;;;;;5056089;28;19943;-87
2022/12/26 12:25:52;;;;;;;;;;;11.40;79.60;;;;;;5056301;28;20012;-86
2022/12/26 12:28:17;;;;;;;;;;;11.50;79.70;;;;;;5056219;28;19938;-87
2022/12/26 12:31:01;;;;;;;;;;;11.60;79.80;;;;;;5056479;28;20352;-87
2022/12/26 12:33:34;;;;;;;;;;;11.80;79.10;;;;;;5055865;28;20036;-87
2022/12/26 12:36:05;;;;;;;;;;;11.90;78.90;;;;;;5056065;28;19949;-87
2022/12/26 12:38:33;;;;;;;;;;;12.00;78.50;;;;;;5056050;28;19939;-88
2022/12/26 12:41:14;;;;;;;;;;;12.20;77.00;;;;;;5056067;28;19938;-87
2022/12/26 12:43:53;;;;;;;;;;;12.10;77.20;;;;;;5055761;28;20393;-87
2022/12/26 12:46:30;;;;;;;;;;;12.10;77.40;;;;;;5055940;28;20041;-86
2022/12/26 12:49:01;;;;;;;;;;;11.90;78.10;;;;;;5055842;28;20388;-87
2022/12/26 12:51:27;;;;;;;;;;;11.90;78.90;;;;;;5055825;28;19945;-87
2022/12/26 12:54:11;;;;;;;;;;;11.80;79.30;;;;;;5055145;28;19939;-87
2022/12/26 12:56:51;;;;;;;;;;;11.70;79.70;;;;;;5055441;28;19971;-87
2022/12/26 12:59:26;;;;;;;;;;;11.70;80.60;;;;;;5055727;28;20001;-87
2022/12/26 13:01:54;;;;;;;;;;;11.90;80.50;;;;;;5055682;28;20051;-87
2022/12/26 13:04:27;;;;;;;;;;;11.90;80.70;;;;;;5055399;28;19946;-87
2022/12/26 13:06:58;;;;;;;;;;;11.80;80.70;;;;;;5055548;28;19983;-87
2022/12/26 13:09:27;;;;;;;;;;;11.80;80.70;;;;;;5055518;28;19943;-87
2022/12/26 13:11:57;;;;;;;;;;;12.00;79.70;;;;;;5055791;28;19940;-87
2022/12/26 13:14:29;;;;;;;;;;;12.10;79.40;;;;;;5054971;28;19964;-86
2022/12/26 13:17:05;;;;;;;;;;;11.90;79.40;;;;;;5035317;28;19973;-86
2022/12/26 13:19:39;;;;;;;;;;;11.80;80.10;;;;;;5017642;28;19982;-86
2022/12/26 13:22:09;;;;;;;;;;;11.70;80.60;;;;;;5034636;28;20419;-87
2022/12/26 13:24:38;;;;;;;;;;;11.50;81.20;;;;;;5046453;28;20432;-87
2022/12/26 13:27:22;;;;;;;;;;;11.40;81.40;;;;;;5055133;28;20436;-87
2022/12/26 13:29:48;;;;;;;;;;;11.40;81.80;;;;;;5055123;28;19981;-87
2022/12/26 13:32:21;;;;;;;;;;;11.40;82.10;;;;;;5055050;28;19973;-87
2022/12/26 13:34:47;;;;;;;;;;;11.60;81.90;;;;;;5054998;28;19949;-87
2022/12/26 13:37:31;;;;;;;;;;;11.60;81.80;;;;;;5054856;28;20477;-87
2022/12/26 13:40:00;;;;;;;;;;;11.70;80.90;;;;;;5054909;28;19992;-87
2022/12/26 13:45:34;;;;;;;;;;;11.60;81.30;;;;;;5055112;28;19943;-87
2022/12/26 13:47:59;;;;;;;;;;;11.60;81.90;;;;;;5054810;28;20391;-86
2022/12/26 13:50:43;;;;;;;;;;;11.40;82.10;;;;;;5054487;28;19940;-87
2022/12/26 13:53:24;;;;;;;;;;;11.40;82.40;;;;;;5054599;28;19965;-87
2022/12/26 13:55:55;;;;;;;;;;;11.30;82.80;;;;;;5054517;28;19973;-87
2022/12/26 13:58:24;;;;;;;;;;;11.20;83.30;;;;;;5054612;28;19939;-87
2022/12/26 14:00:53;;;;;;;;;;;11.10;83.50;;;;;;5054218;28;19948;-87
2022/12/26 14:03:21;;;;;;;;;;;11.10;83.60;;;;;;5054455;28;19946;-87
2022/12/26 14:05:47;;;;;;;;;;;11.20;83.60;;;;;;5054433;28;19950;-87
2022/12/26 14:08:20;;;;;;;;;;;11.20;83.50;;;;;;5054663;28;20027;-86
2022/12/26 14:11:04;;;;;;;;;;;11.30;83.50;;;;;;5054377;28;19945;-87
2022/12/26 14:13:45;;;;;;;;;;;11.30;83.40;;;;;;5054221;28;19948;-86
2022/12/26 14:16:35;;;;;;;;;;;11.20;84.00;;;;;;5054035;28;20025;-87
2022/12/26 14:19:23;;;;;;;;;;;11.20;83.70;;;;;;5036279;28;19947;-86
2022/12/26 14:21:58;;;;;;;;;;;11.20;83.30;;;;;;5053807;28;19943;-87
2022/12/26 14:24:34;;;;;;;;;;;11.20;83.40;;;;;;5053872;28;19944;-87
2022/12/26 14:26:59;;;;;;;;;;;11.10;83.70;;;;;;5053991;28;20026;-87
2022/12/26 14:29:25;;;;;;;;;;;11.00;83.90;;;;;;5053957;28;20356;-87
2022/12/26 14:32:03;;;;;;;;;;;11.00;84.40;;;;;;5053568;28;19948;-87
2022/12/26 14:34:31;;;;;;;;;;;10.90;84.40;;;;;;5053086;28;19945;-87
2022/12/26 14:37:08;;;;;;;;;;;11.00;84.40;;;;;;5053706;28;19959;-87
2022/12/26 14:39:52;;;;;;;;;;;11.00;84.40;;;;;;5053716;28;19948;-87
2022/12/26 14:45:33;;;;;;;;;;;11.10;84.50;;;;;;5053727;28;20419;-87
2022/12/26 14:47:58;;;;;;;;;;;11.10;84.40;;;;;;5022774;28;20392;-87
2022/12/26 14:50:36;;;;;;;;;;;11.10;84.30;;;;;;5053558;28;20029;-87
2022/12/26 14:53:20;;;;;;;;;;;11.00;84.30;;;;;;5033492;28;19968;-86
2022/12/26 14:55:47;;;;;;;;;;;10.90;84.50;;;;;;5033515;28;20040;-87
2022/12/26 14:58:31;;;;;;;;;;;10.90;85.00;;;;;;5033567;28;20066;-87
2022/12/26 15:01:17;;;;;;;;;;;10.90;85.00;;;;;;5037016;28;20511;-87
2022/12/26 15:03:43;;;;;;;;;;;10.90;84.40;;;;;;5053283;28;20381;-87
2022/12/26 15:06:29;;;;;;;;;;;10.90;84.20;;;;;;5053618;28;19941;-87
2022/12/26 15:09:06;;;;;;;;;;;11.00;84.10;;;;;;5021349;28;19950;-87
2022/12/26 15:11:47;;;;;;;;;;;10.90;83.90;;;;;;5052972;28;19947;-87
2022/12/26 15:14:30;;;;;;;;;;;10.80;84.50;;;;;;5053034;28;19950;-87
2022/12/26 15:17:01;;;;;;;;;;;10.80;84.50;;;;;;5053070;28;19941;-86
2022/12/26 15:19:46;;;;;;;;;;;10.70;84.80;;;;;;5053105;28;19980;-87
2022/12/26 15:22:23;;;;;;;;;;;10.70;85.00;;;;;;5052905;28;20400;-87
2022/12/26 15:25:09;;;;;;;;;;;10.70;85.20;;;;;;5053027;28;20410;-86
2022/12/26 15:27:37;;;;;;;;;;;10.70;84.80;;;;;;5052483;28;19946;-87
2022/12/26 15:30:09;;;;;;;;;;;10.60;84.90;;;;;;5053035;28;19940;-87
2022/12/26 15:32:57;;;;;;;;;;;10.60;85.00;;;;;;5052737;28;19944;-87
2022/12/26 15:35:36;;;;;;;;;;;10.60;84.90;;;;;;5044742;28;19948;-86
2022/12/26 15:38:14;;;;;;;;;;;10.60;84.50;;;;;;5052836;28;19955;-86
2022/12/26 15:40:57;;;;;;;;;;;10.60;84.70;;;;;;5052827;28;19941;-87
2022/12/26 15:43:38;;;;;;;;;;;10.60;84.80;;;;;;5033002;28;20396;-86
2022/12/26 15:46:16;;;;;;;;;;;10.50;84.80;;;;;;5046589;28;20041;-87
2022/12/26 15:48:54;;;;;;;;;;;10.40;85.20;;;;;;5056739;28;19949;-87
2022/12/26 15:51:31;;;;;;;;;;;10.40;85.40;;;;;;5057005;28;19988;-87
2022/12/26 15:53:59;;;;;;;;;;;10.40;85.50;;;;;;5056789;28;20342;-87
2022/12/26 15:56:37;;;;;;;;;;;10.40;85.70;;;;;;5057027;28;20012;-87
2022/12/26 15:59:34;;;;;;;;;;;10.40;85.70;;;;;;5049640;28;19941;-87
2022/12/26 16:02:00;;;;;;;;;;;10.40;85.50;;;;;;5044532;28;19941;-86
2022/12/26 16:04:32;;;;;;;;;;;10.50;84.90;;;;;;5051329;28;19947;-87
2022/12/26 16:07:06;;;;;;;;;;;10.50;84.60;;;;;;5056726;28;20310;-86
2022/12/26 16:09:38;;;;;;;;;;;10.50;84.60;;;;;;5041050;28;19950;-87
2022/12/26 16:12:16;;;;;;;;;;;10.50;84.70;;;;;;5036672;28;19944;-87
2022/12/26 16:14:41;;;;;;;;;;;10.40;84.70;;;;;;5037513;28;20017;-87
2022/12/26 16:17:17;;;;;;;;;;;10.40;84.70;;;;;;5040901;28;20012;-87
2022/12/26 16:19:50;;;;;;;;;;;10.30;85.10;;;;;;5053935;28;20467;-87
2022/12/26 16:22:43;;;;;;;;;;;10.30;85.40;;;;;;5038516;28;20029;-87
2022/12/26 16:25:10;;;;;;;;;;;10.20;85.80;;;;;;5054586;28;19955;-87
2022/12/26 16:27:36;;;;;;;;;;;10.20;86.00;;;;;;5054119;28;19946;-87
2022/12/26 16:30:04;;;;;;;;;;;10.20;86.20;;;;;;5056272;28;19966;-87
2022/12/26 16:32:33;;;;;;;;;;;10.30;86.40;;;;;;5056468;28;19944;-87
2022/12/26 16:34:59;;;;;;;;;;;10.30;86.10;;;;;;5047657;28;19943;-87
2022/12/26 16:37:25;;;;;;;;;;;10.30;85.40;;;;;;5053846;28;19967;-87
2022/12/26 16:40:23;;;;;;;;;;;10.20;85.30;;;;;;5054138;28;20435;-87
2022/12/26 16:42:55;;;;;;;;;;;10.20;85.40;;;;;;4999512;28;20004;-87
2022/12/26 16:45:21;;;;;;;;;;;10.30;85.60;;;;;;5040078;28;19947;-87
2022/12/26 16:47:47;;;;;;;;;;;10.20;85.80;;;;;;5055927;28;19977;-87